Time;durP1;ratioP1;P1;durP2;ratioP2;P2;SDS_P1;SDS_P2;PMS_P1;PMS_P2;Temp;Humidity;BMP_temperature;BMP_pressure;BME280_temperature;BME280_humidity;BME280_pressure;Samples;Min_cycle;Max_cycle;Signal;HPM_P1;HPM_P2
2022/08/09 00:01:15;;;;;;;;;;;20.70;99.90;;;;;;5069101;28;20007;-77
2022/08/09 00:03:40;;;;;;;;;;;20.70;99.90;;;;;;5069230;28;19915;-77
2022/08/09 00:06:06;;;;;;;;;;;20.70;99.90;;;;;;5068838;28;19917;-77
2022/08/09 00:08:31;;;;;;;;;;;20.60;99.90;;;;;;5068712;28;20363;-77
2022/08/09 00:10:58;;;;;;;;;;;20.60;99.90;;;;;;5069001;28;20007;-76
2022/08/09 00:13:24;;;;;;;;;;;20.50;99.90;;;;;;5068899;28;19913;-77
2022/08/09 00:15:49;;;;;;;;;;;20.50;99.90;;;;;;5068809;28;19909;-77
2022/08/09 00:18:16;;;;;;;;;;;20.50;99.90;;;;;;5068728;28;19909;-77
2022/08/09 00:20:41;;;;;;;;;;;20.50;99.90;;;;;;5068862;28;19962;-78
2022/08/09 00:23:07;;;;;;;;;;;20.50;99.90;;;;;;5068928;28;20007;-77
2022/08/09 00:25:32;;;;;;;;;;;20.40;99.90;;;;;;5069064;28;19912;-77
2022/08/09 00:27:58;;;;;;;;;;;20.40;99.90;;;;;;5068578;28;20399;-77
2022/08/09 00:30:24;;;;;;;;;;;20.40;99.90;;;;;;5069045;28;20443;-77
2022/08/09 00:32:49;;;;;;;;;;;20.40;99.90;;;;;;5068843;28;19916;-77
2022/08/09 00:35:15;;;;;;;;;;;20.40;99.90;;;;;;5068098;28;19913;-77
2022/08/09 00:37:40;;;;;;;;;;;20.30;99.90;;;;;;5067942;28;19909;-76
2022/08/09 00:40:06;;;;;;;;;;;20.30;99.90;;;;;;5059120;28;19914;-77
2022/08/09 00:42:32;;;;;;;;;;;20.20;99.90;;;;;;5060951;22;19920;-88
2022/08/09 00:44:57;;;;;;;;;;;20.20;99.90;;;;;;5053663;28;19962;-88
2022/08/09 00:47:23;;;;;;;;;;;20.20;99.90;;;;;;5055492;28;19958;-88
2022/08/09 00:49:48;;;;;;;;;;;20.10;99.90;;;;;;5055686;28;19944;-88
2022/08/09 00:52:14;;;;;;;;;;;20.10;99.90;;;;;;5073581;28;19918;-88
2022/08/09 00:54:39;;;;;;;;;;;20.10;99.90;;;;;;5072083;28;19950;-88
2022/08/09 00:57:05;;;;;;;;;;;20.10;99.90;;;;;;5072040;28;19909;-88
2022/08/09 00:59:30;;;;;;;;;;;20.10;99.90;;;;;;5072164;28;19909;-88
2022/08/09 01:01:59;;;;;;;;;;;20.10;99.90;;;;;;5072234;28;19909;-88
2022/08/09 01:04:32;;;;;;;;;;;20.10;99.90;;;;;;5072418;28;20019;-88
2022/08/09 01:07:17;;;;;;;;;;;20.00;99.90;;;;;;5071722;28;19912;-87
2022/08/09 01:10:03;;;;;;;;;;;20.00;99.90;;;;;;5071989;28;20046;-88
2022/08/09 01:12:32;;;;;;;;;;;20.10;99.90;;;;;;5071109;28;19910;-88
2022/08/09 01:15:01;;;;;;;;;;;19.90;99.90;;;;;;5071923;28;19912;-88
2022/08/09 01:17:32;;;;;;;;;;;19.90;99.90;;;;;;5071636;28;20041;-88
2022/08/09 01:19:58;;;;;;;;;;;19.90;99.90;;;;;;5071858;28;19908;-88
2022/08/09 01:22:43;;;;;;;;;;;19.90;99.90;;;;;;5071734;28;19909;-88
2022/08/09 01:25:16;;;;;;;;;;;19.90;99.90;;;;;;5071742;28;19916;-88
2022/08/09 01:27:44;;;;;;;;;;;19.80;99.90;;;;;;5071598;28;19915;-88
2022/08/09 01:30:10;;;;;;;;;;;19.80;99.90;;;;;;5071748;28;19916;-88
2022/08/09 01:32:42;;;;;;;;;;;19.80;99.90;;;;;;5071693;28;19912;-88
2022/08/09 01:35:11;;;;;;;;;;;19.80;99.90;;;;;;5071691;28;19920;-88
2022/08/09 01:37:38;;;;;;;;;;;19.80;99.90;;;;;;5071560;28;19958;-88
2022/08/09 01:40:06;;;;;;;;;;;19.80;99.90;;;;;;5071712;28;19915;-89
2022/08/09 01:42:33;;;;;;;;;;;19.70;99.90;;;;;;5071422;28;20003;-88
2022/08/09 01:44:59;;;;;;;;;;;19.50;99.90;;;;;;5071537;28;19958;-88
2022/08/09 01:47:25;;;;;;;;;;;19.40;99.90;;;;;;5071388;28;19908;-88
2022/08/09 01:49:51;;;;;;;;;;;19.40;99.90;;;;;;5072634;28;19923;-88
2022/08/09 01:52:18;;;;;;;;;;;19.40;99.90;;;;;;5075473;28;19916;-88
2022/08/09 01:54:52;;;;;;;;;;;19.40;99.90;;;;;;5075646;28;20011;-88
2022/08/09 01:57:19;;;;;;;;;;;19.40;99.90;;;;;;5075433;28;19915;-88
2022/08/09 01:59:46;;;;;;;;;;;19.40;99.90;;;;;;5075580;28;19908;-88
2022/08/09 02:02:13;;;;;;;;;;;19.40;99.90;;;;;;5075414;28;19908;-88
2022/08/09 02:04:39;;;;;;;;;;;19.30;99.90;;;;;;5075328;28;19908;-88
2022/08/09 02:07:14;;;;;;;;;;;19.30;99.90;;;;;;5075038;28;19912;-88
2022/08/09 02:09:55;;;;;;;;;;;19.30;99.90;;;;;;5075250;28;19909;-88
2022/08/09 02:12:22;;;;;;;;;;;19.30;99.90;;;;;;5075096;28;20017;-88
2022/08/09 02:14:49;;;;;;;;;;;19.30;99.90;;;;;;5075043;28;19913;-88
2022/08/09 02:17:16;;;;;;;;;;;19.30;99.90;;;;;;5074972;28;19909;-87
2022/08/09 02:19:43;;;;;;;;;;;19.20;99.90;;;;;;5074921;28;20003;-88
2022/08/09 02:22:28;;;;;;;;;;;19.20;99.90;;;;;;5075052;28;19909;-88
2022/08/09 02:24:56;;;;;;;;;;;19.30;99.90;;;;;;5074128;28;19908;-88
2022/08/09 02:27:22;;;;;;;;;;;19.30;99.90;;;;;;5074794;28;20331;-89
2022/08/09 02:29:50;;;;;;;;;;;19.20;99.90;;;;;;5075193;28;19909;-87
2022/08/09 02:32:17;;;;;;;;;;;19.20;99.90;;;;;;5074607;28;19909;-88
2022/08/09 02:34:44;;;;;;;;;;;19.20;99.90;;;;;;5074594;28;19908;-88
2022/08/09 02:37:13;;;;;;;;;;;19.20;99.90;;;;;;5074555;28;19962;-88
2022/08/09 02:39:40;;;;;;;;;;;19.20;99.90;;;;;;5074839;28;19908;-88
2022/08/09 02:42:15;;;;;;;;;;;19.20;99.90;;;;;;5074688;28;20416;-87
2022/08/09 02:44:43;;;;;;;;;;;19.10;99.90;;;;;;5074504;28;19917;-88
2022/08/09 02:47:10;;;;;;;;;;;19.20;99.90;;;;;;5074271;28;19920;-88
2022/08/09 02:49:51;;;;;;;;;;;19.20;99.90;;;;;;5074874;28;19916;-89
2022/08/09 02:52:17;;;;;;;;;;;19.10;99.90;;;;;;5074467;28;19908;-88
2022/08/09 02:54:43;;;;;;;;;;;19.10;99.90;;;;;;5074393;28;19909;-88
2022/08/09 02:57:09;;;;;;;;;;;19.10;99.90;;;;;;5074186;28;19908;-88
2022/08/09 02:59:35;;;;;;;;;;;19.10;99.90;;;;;;5074263;28;19912;-88
2022/08/09 03:02:02;;;;;;;;;;;19.10;99.90;;;;;;5073804;28;19916;-88
2022/08/09 03:04:28;;;;;;;;;;;19.00;99.90;;;;;;5074148;28;19912;-88
2022/08/09 03:06:55;;;;;;;;;;;19.00;99.90;;;;;;5074212;28;19912;-87
2022/08/09 03:09:21;;;;;;;;;;;18.90;99.90;;;;;;5074022;28;19915;-88
2022/08/09 03:11:47;;;;;;;;;;;18.90;99.90;;;;;;5074102;28;19996;-88
2022/08/09 03:14:14;;;;;;;;;;;18.90;99.90;;;;;;5073989;28;19954;-89
2022/08/09 03:16:40;;;;;;;;;;;18.90;99.90;;;;;;5074056;28;20028;-88
2022/08/09 03:19:06;;;;;;;;;;;18.90;99.90;;;;;;5073960;28;19909;-88
2022/08/09 03:21:33;;;;;;;;;;;18.80;99.90;;;;;;5074208;28;19912;-88
2022/08/09 03:23:59;;;;;;;;;;;18.80;99.90;;;;;;5074049;28;20003;-88
2022/08/09 03:26:24;;;;;;;;;;;18.80;99.90;;;;;;5074749;28;20053;-88
2022/08/09 03:28:50;;;;;;;;;;;18.70;99.90;;;;;;5073697;28;19908;-88
2022/08/09 03:31:16;;;;;;;;;;;18.60;99.90;;;;;;5073693;28;19909;-88
2022/08/09 03:33:43;;;;;;;;;;;18.60;99.90;;;;;;5073508;28;19908;-88
2022/08/09 03:36:09;;;;;;;;;;;18.50;99.90;;;;;;5073388;28;19913;-88
2022/08/09 03:38:36;;;;;;;;;;;18.60;99.90;;;;;;5073467;28;19908;-88
2022/08/09 03:41:01;;;;;;;;;;;18.50;99.90;;;;;;5073677;28;19991;-88
2022/08/09 03:43:26;;;;;;;;;;;18.50;99.90;;;;;;5073274;28;19926;-88
2022/08/09 03:45:52;;;;;;;;;;;18.40;99.90;;;;;;5073249;28;19912;-88
2022/08/09 03:48:19;;;;;;;;;;;18.30;99.90;;;;;;5073338;28;19996;-88
2022/08/09 03:50:45;;;;;;;;;;;18.30;99.90;;;;;;5073455;28;19909;-87
2022/08/09 03:53:11;;;;;;;;;;;18.30;99.90;;;;;;5073241;28;19908;-88
2022/08/09 03:55:36;;;;;;;;;;;18.30;99.90;;;;;;5073183;28;20115;-88
2022/08/09 03:58:02;;;;;;;;;;;18.20;99.90;;;;;;5074302;28;19909;-88
2022/08/09 04:00:28;;;;;;;;;;;18.20;99.90;;;;;;5073234;28;20359;-88
2022/08/09 04:02:54;;;;;;;;;;;18.10;99.90;;;;;;5073125;28;19908;-88
2022/08/09 04:05:20;;;;;;;;;;;18.20;99.90;;;;;;5072860;28;20007;-88
2022/08/09 04:07:46;;;;;;;;;;;18.10;99.90;;;;;;5072830;28;20384;-88
2022/08/09 04:10:13;;;;;;;;;;;18.10;99.90;;;;;;5072968;28;20005;-88
2022/08/09 04:12:41;;;;;;;;;;;18.20;99.90;;;;;;5072051;28;20287;-88
2022/08/09 04:15:07;;;;;;;;;;;18.20;99.90;;;;;;5072819;28;19958;-88
2022/08/09 04:17:32;;;;;;;;;;;18.20;99.90;;;;;;5072429;28;19912;-88
2022/08/09 04:19:58;;;;;;;;;;;18.20;99.90;;;;;;5072720;28;19908;-88
2022/08/09 04:22:23;;;;;;;;;;;18.20;99.90;;;;;;5072605;28;20367;-88
2022/08/09 04:24:49;;;;;;;;;;;18.20;99.90;;;;;;5072642;28;19914;-88
2022/08/09 04:27:14;;;;;;;;;;;18.20;99.90;;;;;;5072399;28;19965;-88
2022/08/09 04:29:40;;;;;;;;;;;18.20;99.90;;;;;;5072642;28;19916;-88
2022/08/09 04:32:05;;;;;;;;;;;18.20;99.90;;;;;;5072805;28;19940;-88
2022/08/09 04:34:32;;;;;;;;;;;18.20;99.90;;;;;;5072394;28;19912;-88
2022/08/09 04:36:59;;;;;;;;;;;18.20;99.90;;;;;;5072924;28;19958;-87
2022/08/09 04:39:24;;;;;;;;;;;18.30;99.90;;;;;;5072887;28;20376;-88
2022/08/09 04:41:50;;;;;;;;;;;18.30;99.90;;;;;;5072620;28;19915;-88
2022/08/09 04:44:15;;;;;;;;;;;18.30;99.90;;;;;;5072101;28;19916;-88
2022/08/09 04:46:41;;;;;;;;;;;18.40;99.90;;;;;;5072061;28;19935;-87
2022/08/09 04:49:07;;;;;;;;;;;18.40;99.90;;;;;;5072211;28;19913;-87
2022/08/09 04:51:32;;;;;;;;;;;18.40;99.90;;;;;;5072294;28;19912;-87
2022/08/09 04:53:58;;;;;;;;;;;18.50;99.90;;;;;;5072158;28;19959;-89
2022/08/09 04:56:23;;;;;;;;;;;18.50;99.90;;;;;;5072327;28;19914;-88
2022/08/09 04:58:49;;;;;;;;;;;18.50;99.90;;;;;;5072166;28;19955;-88
2022/08/09 05:01:14;;;;;;;;;;;18.40;99.90;;;;;;5072099;28;19958;-88
2022/08/09 05:03:40;;;;;;;;;;;18.50;99.90;;;;;;5072086;28;19909;-88
2022/08/09 05:06:06;;;;;;;;;;;18.60;99.90;;;;;;5072213;28;19919;-88
2022/08/09 05:08:33;;;;;;;;;;;18.60;99.90;;;;;;5072127;28;19919;-88
2022/08/09 05:10:59;;;;;;;;;;;18.60;99.90;;;;;;5072224;28;20007;-88
2022/08/09 05:13:24;;;;;;;;;;;18.70;99.90;;;;;;5072131;28;20009;-88
2022/08/09 05:15:50;;;;;;;;;;;18.70;99.90;;;;;;5071960;28;19909;-88
2022/08/09 05:18:15;;;;;;;;;;;18.80;99.90;;;;;;5072086;28;20291;-87
2022/08/09 05:20:41;;;;;;;;;;;18.90;99.90;;;;;;5071928;28;20367;-88
2022/08/09 05:23:06;;;;;;;;;;;18.80;99.90;;;;;;5074054;28;19912;-85
2022/08/09 05:25:32;;;;;;;;;;;18.80;99.90;;;;;;5072481;28;19912;-85
2022/08/09 05:27:57;;;;;;;;;;;18.70;99.90;;;;;;5072588;28;19947;-86
2022/08/09 05:30:23;;;;;;;;;;;18.90;99.90;;;;;;5073984;28;19908;-85
2022/08/09 05:32:48;;;;;;;;;;;19.00;99.90;;;;;;5073965;28;19912;-85
2022/08/09 05:35:14;;;;;;;;;;;19.10;99.90;;;;;;5073497;28;19908;-85
2022/08/09 05:37:39;;;;;;;;;;;19.20;99.90;;;;;;5073644;28;19909;-85
2022/08/09 05:40:06;;;;;;;;;;;19.20;99.90;;;;;;5072696;28;19999;-86
2022/08/09 05:42:32;;;;;;;;;;;19.30;99.90;;;;;;5072400;28;19920;-85
2022/08/09 05:44:58;;;;;;;;;;;19.40;99.90;;;;;;5072875;28;19983;-85
2022/08/09 05:47:24;;;;;;;;;;;19.50;99.90;;;;;;5074566;28;19908;-84
2022/08/09 05:49:50;;;;;;;;;;;19.60;99.90;;;;;;5074563;28;19916;-86
2022/08/09 05:52:16;;;;;;;;;;;19.70;99.90;;;;;;5074099;28;20014;-85
2022/08/09 05:54:41;;;;;;;;;;;19.70;99.90;;;;;;5072970;28;19914;-85
2022/08/09 05:57:07;;;;;;;;;;;19.80;99.90;;;;;;5075149;28;19912;-85
2022/08/09 05:59:33;;;;;;;;;;;19.90;99.90;;;;;;5073664;28;19908;-85
2022/08/09 06:01:58;;;;;;;;;;;19.90;99.90;;;;;;5074031;28;19909;-85
2022/08/09 06:04:24;;;;;;;;;;;20.10;99.90;;;;;;5073900;28;19995;-86
2022/08/09 06:06:49;;;;;;;;;;;20.20;99.90;;;;;;5075351;28;19991;-85
2022/08/09 06:09:15;;;;;;;;;;;20.20;99.90;;;;;;5074385;28;19908;-85
2022/08/09 06:11:40;;;;;;;;;;;20.30;99.90;;;;;;5075438;28;20328;-84
2022/08/09 06:14:06;;;;;;;;;;;20.40;99.90;;;;;;5074584;28;19909;-85
2022/08/09 06:16:32;;;;;;;;;;;20.50;99.90;;;;;;5072246;28;20283;-85
2022/08/09 06:18:57;;;;;;;;;;;20.60;99.90;;;;;;5072868;28;20356;-85
2022/08/09 06:21:23;;;;;;;;;;;20.70;99.90;;;;;;5073558;28;19908;-85
2022/08/09 06:23:48;;;;;;;;;;;20.80;99.90;;;;;;5073004;28;19908;-86
2022/08/09 06:26:15;;;;;;;;;;;20.80;99.90;;;;;;5072759;28;19913;-87
2022/08/09 06:28:40;;;;;;;;;;;20.80;99.90;;;;;;5072661;28;19908;-85
2022/08/09 06:31:06;;;;;;;;;;;20.90;99.90;;;;;;5073488;28;19909;-86
2022/08/09 06:33:31;;;;;;;;;;;20.90;99.90;;;;;;5074237;28;19913;-85
2022/08/09 06:35:56;;;;;;;;;;;21.00;99.90;;;;;;5072845;28;19916;-85
2022/08/09 06:38:22;;;;;;;;;;;21.20;99.90;;;;;;5075270;28;19920;-85
2022/08/09 06:40:47;;;;;;;;;;;21.30;99.90;;;;;;5076111;28;19979;-85
2022/08/09 06:45:39;;;;;;;;;;;21.50;99.90;;;;;;5115990;22;19931;-78
2022/08/09 06:48:04;;;;;;;;;;;21.60;99.90;;;;;;5070538;28;20335;-79
2022/08/09 06:50:30;;;;;;;;;;;21.60;99.90;;;;;;5078833;28;19931;-76
2022/08/09 06:52:56;;;;;;;;;;;21.60;99.90;;;;;;5084813;28;19984;-77
2022/08/09 06:55:25;;;;;;;;;;;21.80;99.90;;;;;;5089985;28;19938;-76
2022/08/09 06:57:51;;;;;;;;;;;21.90;99.90;;;;;;5090174;28;19962;-77
2022/08/09 07:00:17;;;;;;;;;;;22.10;99.90;;;;;;5090284;28;20444;-76
2022/08/09 07:02:43;;;;;;;;;;;22.20;99.90;;;;;;5090128;28;19912;-76
2022/08/09 07:05:09;;;;;;;;;;;22.30;99.90;;;;;;5090097;28;19912;-77
2022/08/09 07:07:34;;;;;;;;;;;22.40;99.90;;;;;;5090522;28;19909;-78
2022/08/09 07:10:00;;;;;;;;;;;22.50;99.90;;;;;;5090207;28;19908;-77
2022/08/09 07:12:25;;;;;;;;;;;22.60;99.90;;;;;;5090118;28;19908;-76
2022/08/09 07:14:51;;;;;;;;;;;22.70;99.90;;;;;;5089848;28;19909;-77
2022/08/09 07:17:17;;;;;;;;;;;22.80;99.90;;;;;;5090065;28;20383;-77
2022/08/09 07:19:43;;;;;;;;;;;22.90;99.90;;;;;;5089932;28;19928;-77
2022/08/09 07:22:08;;;;;;;;;;;22.90;99.90;;;;;;5089756;28;19908;-77
2022/08/09 07:24:34;;;;;;;;;;;23.10;99.90;;;;;;5090404;28;19916;-77
2022/08/09 07:27:00;;;;;;;;;;;23.20;99.90;;;;;;5090492;28;19912;-77
2022/08/09 07:29:26;;;;;;;;;;;23.30;99.90;;;;;;5090793;28;20354;-77
2022/08/09 07:31:51;;;;;;;;;;;23.40;99.90;;;;;;5089939;28;20000;-77
2022/08/09 07:34:17;;;;;;;;;;;23.50;99.90;;;;;;5089784;28;20311;-78
2022/08/09 07:36:43;;;;;;;;;;;23.50;99.90;;;;;;5089752;28;19991;-77
2022/08/09 07:39:09;;;;;;;;;;;23.60;99.90;;;;;;5092999;28;19918;-80
2022/08/09 07:41:34;;;;;;;;;;;23.70;99.90;;;;;;5091109;28;19915;-78
2022/08/09 07:44:00;;;;;;;;;;;23.80;99.90;;;;;;5089848;28;20006;-78
2022/08/09 07:46:26;;;;;;;;;;;23.90;99.90;;;;;;5091451;28;19986;-82
2022/08/09 07:48:51;;;;;;;;;;;24.00;99.90;;;;;;5090685;28;19908;-79
2022/08/09 07:51:17;;;;;;;;;;;24.10;99.90;;;;;;5091535;28;19962;-79
2022/08/09 07:53:43;;;;;;;;;;;24.10;99.90;;;;;;5093533;28;20332;-79
2022/08/09 07:56:09;;;;;;;;;;;24.20;99.90;;;;;;5093822;28;19915;-80
2022/08/09 07:58:34;;;;;;;;;;;24.30;99.90;;;;;;5093807;28;19993;-80
2022/08/09 08:01:00;;;;;;;;;;;24.30;99.90;;;;;;5093760;28;19909;-80
2022/08/09 08:03:25;;;;;;;;;;;24.40;99.90;;;;;;5093637;28;19977;-82
2022/08/09 08:05:51;;;;;;;;;;;24.60;99.90;;;;;;5093142;28;20314;-81
2022/08/09 08:08:17;;;;;;;;;;;24.70;99.90;;;;;;5094309;28;19919;-80
2022/08/09 08:10:42;;;;;;;;;;;25.00;99.90;;;;;;5093771;28;19916;-80
2022/08/09 08:13:08;;;;;;;;;;;25.60;99.90;;;;;;5094747;28;20008;-81
2022/08/09 08:15:34;;;;;;;;;;;26.70;99.90;;;;;;5093733;28;19963;-81
2022/08/09 08:17:59;;;;;;;;;;;27.80;99.90;;;;;;5092500;28;19916;-80
2022/08/09 08:20:26;;;;;;;;;;;28.90;99.10;;;;;;5092625;28;19915;-80
2022/08/09 08:22:52;;;;;;;;;;;30.10;96.80;;;;;;5092386;28;19997;-80
2022/08/09 08:25:17;;;;;;;;;;;31.30;89.60;;;;;;5092928;28;19908;-80
2022/08/09 08:27:43;;;;;;;;;;;32.10;83.50;;;;;;5092417;28;19916;-81
2022/08/09 08:30:09;;;;;;;;;;;33.00;79.80;;;;;;5092515;28;19947;-81
2022/08/09 08:32:41;;;;;;;;;;;33.90;71.40;;;;;;5093173;28;19935;-80
2022/08/09 08:35:07;;;;;;;;;;;34.70;66.20;;;;;;5092383;28;19955;-81
2022/08/09 08:37:33;;;;;;;;;;;35.50;62.20;;;;;;5096822;28;19947;-84
2022/08/09 08:39:59;;;;;;;;;;;35.90;56.20;;;;;;5069567;28;19976;-84
2022/08/09 08:42:25;;;;;;;;;;;36.10;54.20;;;;;;5078517;28;19959;-84
2022/08/09 08:44:54;;;;;;;;;;;36.40;52.90;;;;;;5089149;28;20454;-83
2022/08/09 08:47:20;;;;;;;;;;;37.00;52.30;;;;;;5070044;28;20007;-86
2022/08/09 08:49:46;;;;;;;;;;;37.50;52.10;;;;;;5072665;28;19948;-85
2022/08/09 08:52:12;;;;;;;;;;;38.20;49.30;;;;;;5077784;28;19984;-83
2022/08/09 08:54:38;;;;;;;;;;;38.80;47.60;;;;;;5112922;28;19908;-85
2022/08/09 08:57:03;;;;;;;;;;;39.40;46.60;;;;;;5090129;28;19908;-85
2022/08/09 08:59:29;;;;;;;;;;;39.70;44.60;;;;;;5093410;28;20423;-85
2022/08/09 09:01:55;;;;;;;;;;;40.20;43.10;;;;;;5095364;28;19934;-84
2022/08/09 09:04:25;;;;;;;;;;;40.30;41.70;;;;;;5100686;28;19919;-83
2022/08/09 09:06:53;;;;;;;;;;;40.70;42.70;;;;;;5100641;28;19966;-81
2022/08/09 09:09:19;;;;;;;;;;;41.20;40.50;;;;;;5095328;28;20425;-83
2022/08/09 09:11:45;;;;;;;;;;;41.60;40.00;;;;;;5079937;28;20071;-83
2022/08/09 09:14:15;;;;;;;;;;;41.60;37.70;;;;;;5080793;28;19909;-82
2022/08/09 09:16:41;;;;;;;;;;;42.10;38.90;;;;;;5076192;28;19958;-82
2022/08/09 09:19:08;;;;;;;;;;;42.60;37.30;;;;;;5078943;28;19913;-83
2022/08/09 09:21:33;;;;;;;;;;;42.30;35.40;;;;;;5082138;28;19908;-84
2022/08/09 09:24:02;;;;;;;;;;;41.60;35.20;;;;;;5071882;28;19943;-83
2022/08/09 09:26:28;;;;;;;;;;;41.60;35.50;;;;;;5061207;28;19973;-83
2022/08/09 09:28:53;;;;;;;;;;;42.20;36.90;;;;;;5059469;28;20396;-84
2022/08/09 09:31:21;;;;;;;;;;;42.60;35.10;;;;;;5052415;28;19935;-78
2022/08/09 09:33:46;;;;;;;;;;;43.20;35.30;;;;;;5065115;28;19908;-77
2022/08/09 09:36:12;;;;;;;;;;;43.80;34.30;;;;;;5077462;28;19924;-77
2022/08/09 09:38:41;;;;;;;;;;;44.40;34.10;;;;;;5078912;28;19952;-77
2022/08/09 09:41:07;;;;;;;;;;;45.10;33.60;;;;;;5087141;28;19915;-77
2022/08/09 09:43:33;;;;;;;;;;;45.70;31.90;;;;;;5087154;28;20371;-77
2022/08/09 09:46:01;;;;;;;;;;;46.10;31.30;;;;;;5086589;28;20007;-77
2022/08/09 09:48:28;;;;;;;;;;;46.50;30.80;;;;;;5087071;28;19944;-77
2022/08/09 09:50:53;;;;;;;;;;;46.90;30.00;;;;;;5087099;28;20007;-77
2022/08/09 09:53:20;;;;;;;;;;;47.00;29.30;;;;;;5087202;28;19959;-77
2022/08/09 09:55:50;;;;;;;;;;;46.70;28.60;;;;;;5086781;28;19909;-78
2022/08/09 09:58:16;;;;;;;;;;;46.40;29.80;;;;;;5087205;28;19909;-72
2022/08/09 10:01:00;;;;;;;;;;;45.50;29.40;;;;;;5087306;28;20261;-82
2022/08/09 10:03:48;;;;;;;;;;;44.50;29.70;;;;;;5089633;28;19909;-81
2022/08/09 10:06:14;;;;;;;;;;;43.40;31.70;;;;;;5089645;28;19912;-82
2022/08/09 10:08:40;;;;;;;;;;;42.50;30.00;;;;;;5091100;28;19914;-82
2022/08/09 10:11:22;;;;;;;;;;;42.50;31.20;;;;;;5090502;28;19946;-82
2022/08/09 10:13:48;;;;;;;;;;;43.40;31.50;;;;;;5094267;28;20007;-82
2022/08/09 10:16:14;;;;;;;;;;;44.60;31.30;;;;;;5093011;28;19994;-82
2022/08/09 10:18:50;;;;;;;;;;;44.40;28.90;;;;;;5094002;28;19915;-81
2022/08/09 10:21:16;;;;;;;;;;;43.20;29.80;;;;;;5097699;28;19954;-84
2022/08/09 10:23:42;;;;;;;;;;;42.50;31.20;;;;;;5095672;28;19912;-83
2022/08/09 10:26:08;;;;;;;;;;;41.60;33.00;;;;;;5096506;28;20316;-83
2022/08/09 10:28:34;;;;;;;;;;;40.80;33.90;;;;;;5096388;28;19908;-83
2022/08/09 10:31:00;;;;;;;;;;;40.70;32.00;;;;;;5096939;28;20210;-82
2022/08/09 10:33:25;;;;;;;;;;;41.40;32.20;;;;;;5097334;28;19914;-72
2022/08/09 10:35:51;;;;;;;;;;;42.00;31.40;;;;;;5090311;28;19924;-72
2022/08/09 10:38:17;;;;;;;;;;;41.50;31.70;;;;;;5090249;28;19999;-72
2022/08/09 10:40:44;;;;;;;;;;;40.60;31.60;;;;;;5090404;28;19908;-72
2022/08/09 10:43:10;;;;;;;;;;;39.50;33.40;;;;;;5092205;28;19908;-81
2022/08/09 10:45:36;;;;;;;;;;;38.80;33.90;;;;;;5095659;28;19963;-80
2022/08/09 10:48:06;;;;;;;;;;;38.10;34.90;;;;;;5096333;28;20144;-80
2022/08/09 10:51:14;;;;;;;;;;;37.40;35.80;;;;;;5085573;28;19912;-79
2022/08/09 10:53:39;;;;;;;;;;;36.60;36.40;;;;;;5073002;28;20428;-80
2022/08/09 10:56:15;;;;;;;;;;;36.10;37.00;;;;;;5097869;28;20303;-81
2022/08/09 10:58:41;;;;;;;;;;;35.50;36.70;;;;;;5097466;28;19961;-81
2022/08/09 11:01:26;;;;;;;;;;;35.00;37.00;;;;;;5097128;28;19959;-81
2022/08/09 11:04:07;;;;;;;;;;;34.40;38.50;;;;;;5095252;28;19913;-81
2022/08/09 11:06:35;;;;;;;;;;;33.90;39.60;;;;;;5095304;28;20046;-81
2022/08/09 11:09:01;;;;;;;;;;;33.50;40.50;;;;;;5095470;28;19999;-80
2022/08/09 11:11:46;;;;;;;;;;;33.20;40.90;;;;;;5095100;28;19948;-80
2022/08/09 11:14:34;;;;;;;;;;;32.90;41.10;;;;;;5095792;28;19920;-80
2022/08/09 11:17:19;;;;;;;;;;;32.60;42.20;;;;;;5096206;28;19908;-82
2022/08/09 11:19:53;;;;;;;;;;;32.40;42.40;;;;;;5074665;28;19909;-80
2022/08/09 11:22:19;;;;;;;;;;;32.10;43.10;;;;;;5095252;28;19963;-80
2022/08/09 11:25:05;;;;;;;;;;;31.90;43.10;;;;;;5094277;28;19915;-80
2022/08/09 11:27:31;;;;;;;;;;;31.80;44.40;;;;;;5094371;28;19912;-80
2022/08/09 11:29:57;;;;;;;;;;;31.80;43.30;;;;;;5094373;28;19915;-79
2022/08/09 11:32:38;;;;;;;;;;;31.60;43.80;;;;;;5077665;28;19913;-80
2022/08/09 11:35:10;;;;;;;;;;;31.50;44.00;;;;;;5091309;28;20379;-80
2022/08/09 11:37:37;;;;;;;;;;;31.50;44.70;;;;;;5094069;28;19932;-80
2022/08/09 11:40:05;;;;;;;;;;;31.40;44.00;;;;;;5093920;28;19920;-79
2022/08/09 11:42:38;;;;;;;;;;;31.40;43.40;;;;;;5094336;28;19909;-80
2022/08/09 11:45:03;;;;;;;;;;;31.40;42.90;;;;;;5093459;28;19916;-80
2022/08/09 11:47:52;;;;;;;;;;;31.30;43.10;;;;;;5093290;28;20336;-79
2022/08/09 11:50:18;;;;;;;;;;;31.30;43.40;;;;;;5093330;28;19936;-80
2022/08/09 11:52:59;;;;;;;;;;;31.20;43.90;;;;;;5093917;28;19909;-79
2022/08/09 11:55:28;;;;;;;;;;;31.20;42.80;;;;;;5088459;28;19982;-80
2022/08/09 11:57:53;;;;;;;;;;;31.10;43.20;;;;;;5072886;28;19909;-79
2022/08/09 12:00:21;;;;;;;;;;;31.00;44.10;;;;;;5073247;28;20515;-80
2022/08/09 12:02:47;;;;;;;;;;;31.00;44.90;;;;;;5071841;28;20331;-79
2022/08/09 12:05:13;;;;;;;;;;;31.00;44.20;;;;;;5072255;28;19909;-79
2022/08/09 12:07:39;;;;;;;;;;;31.00;45.00;;;;;;5077049;28;19958;-79
2022/08/09 12:10:05;;;;;;;;;;;31.10;45.20;;;;;;5107481;28;19908;-79
2022/08/09 12:12:46;;;;;;;;;;;31.40;43.90;;;;;;5068600;28;19912;-80
2022/08/09 12:15:18;;;;;;;;;;;31.60;44.90;;;;;;5093755;28;19912;-79
2022/08/09 12:17:47;;;;;;;;;;;31.80;44.00;;;;;;5093471;28;19915;-79
2022/08/09 12:20:13;;;;;;;;;;;31.90;44.20;;;;;;5092583;28;19919;-80
2022/08/09 12:22:38;;;;;;;;;;;31.80;43.50;;;;;;5093330;28;19908;-80
2022/08/09 12:25:14;;;;;;;;;;;31.70;43.20;;;;;;5093336;28;19908;-79
2022/08/09 12:27:39;;;;;;;;;;;31.60;43.70;;;;;;5092771;28;19912;-79
2022/08/09 12:30:06;;;;;;;;;;;31.50;44.20;;;;;;5093181;28;19909;-79
2022/08/09 12:32:32;;;;;;;;;;;31.50;44.60;;;;;;5092682;28;19913;-79
2022/08/09 12:34:59;;;;;;;;;;;31.40;44.10;;;;;;5092538;28;20310;-79
2022/08/09 12:37:39;;;;;;;;;;;31.50;41.80;;;;;;5092507;28;19915;-79
2022/08/09 12:40:06;;;;;;;;;;;31.80;43.40;;;;;;5092869;28;19908;-79
2022/08/09 12:42:32;;;;;;;;;;;32.20;44.70;;;;;;5092571;28;20194;-79
2022/08/09 12:44:58;;;;;;;;;;;33.50;43.90;;;;;;5109345;22;19900;-76
2022/08/09 12:47:24;;;;;;;;;;;33.90;41.10;;;;;;5076382;28;19920;-78
2022/08/09 12:52:40;;;;;;;;;;;33.40;41.70;;;;;;5094741;28;19916;-78
2022/08/09 12:55:08;;;;;;;;;;;33.10;42.60;;;;;;5094140;28;20329;-78
2022/08/09 12:57:45;;;;;;;;;;;32.80;41.60;;;;;;5092949;28;19908;-76
2022/08/09 13:00:16;;;;;;;;;;;32.60;41.70;;;;;;5092479;28;19912;-78
2022/08/09 13:02:58;;;;;;;;;;;32.40;42.40;;;;;;5094414;28;19909;-78
2022/08/09 13:05:24;;;;;;;;;;;32.10;42.30;;;;;;5093769;28;19915;-78
2022/08/09 13:08:13;;;;;;;;;;;32.00;42.30;;;;;;5093707;28;19908;-78
2022/08/09 13:10:45;;;;;;;;;;;31.80;42.30;;;;;;5093608;28;20379;-78
2022/08/09 13:13:11;;;;;;;;;;;31.90;43.70;;;;;;5093803;28;19908;-77
2022/08/09 13:15:50;;;;;;;;;;;31.80;42.60;;;;;;5094039;28;20413;-77
2022/08/09 13:18:16;;;;;;;;;;;31.80;43.30;;;;;;5093159;28;19908;-78
2022/08/09 13:20:42;;;;;;;;;;;31.60;41.90;;;;;;5093195;28;19958;-78
2022/08/09 13:23:07;;;;;;;;;;;31.60;44.40;;;;;;5093306;28;19908;-78
2022/08/09 13:25:37;;;;;;;;;;;31.50;42.80;;;;;;5093542;28;19923;-78
2022/08/09 13:28:16;;;;;;;;;;;31.50;42.60;;;;;;5091861;28;19912;-78
2022/08/09 13:30:43;;;;;;;;;;;31.60;45.30;;;;;;5091615;28;19908;-78
2022/08/09 13:33:08;;;;;;;;;;;31.50;42.10;;;;;;5091432;28;19955;-77
2022/08/09 13:35:34;;;;;;;;;;;31.50;45.00;;;;;;5091809;28;19931;-77
2022/08/09 13:38:00;;;;;;;;;;;31.60;45.20;;;;;;5091406;28;19966;-77
2022/08/09 13:40:25;;;;;;;;;;;31.70;43.60;;;;;;5091655;28;19912;-78
2022/08/09 13:42:51;;;;;;;;;;;31.70;46.50;;;;;;5091478;28;19923;-78
2022/08/09 13:45:17;;;;;;;;;;;31.80;42.80;;;;;;5093109;28;20449;-78
2022/08/09 13:47:43;;;;;;;;;;;31.80;43.00;;;;;;5095803;28;20046;-78
2022/08/09 13:50:10;;;;;;;;;;;31.80;44.60;;;;;;5104089;28;19943;-78
2022/08/09 13:52:35;;;;;;;;;;;31.60;42.00;;;;;;5097909;28;19919;-78
2022/08/09 13:55:02;;;;;;;;;;;31.80;43.60;;;;;;5097899;28;19908;-78
2022/08/09 13:57:28;;;;;;;;;;;31.80;45.50;;;;;;5097488;28;19908;-78
2022/08/09 13:59:53;;;;;;;;;;;31.80;45.30;;;;;;5097899;28;19912;-78
2022/08/09 14:02:19;;;;;;;;;;;31.90;45.10;;;;;;5097742;28;20420;-78
2022/08/09 14:04:44;;;;;;;;;;;31.80;42.70;;;;;;5097211;28;19908;-78
2022/08/09 14:07:10;;;;;;;;;;;31.80;41.90;;;;;;5097067;28;20253;-78
2022/08/09 14:09:39;;;;;;;;;;;31.60;41.00;;;;;;5097638;28;19959;-78
2022/08/09 14:12:04;;;;;;;;;;;31.60;42.00;;;;;;5097174;28;19915;-78
2022/08/09 14:14:30;;;;;;;;;;;31.60;42.50;;;;;;5096622;28;19912;-78
2022/08/09 14:16:56;;;;;;;;;;;31.50;41.90;;;;;;5096880;28;19919;-78
2022/08/09 14:19:22;;;;;;;;;;;31.40;41.60;;;;;;5097200;28;19908;-79
2022/08/09 14:21:48;;;;;;;;;;;31.30;42.30;;;;;;5097044;28;19912;-78
2022/08/09 14:24:15;;;;;;;;;;;31.40;42.00;;;;;;5097191;28;19908;-78